sensor_id;sensor_type;location;lat;lon;timestamp;temperature;humidity
11894;DHT22;6006;49.696;8.662;2023-08-17T00:02:16;18.40;99.90
11894;DHT22;6006;49.696;8.662;2023-08-17T00:04:43;18.40;99.90
11894;DHT22;6006;49.696;8.662;2023-08-17T00:07:10;18.40;99.90
11894;DHT22;6006;49.696;8.662;2023-08-17T00:09:38;18.40;99.90
11894;DHT22;6006;49.696;8.662;2023-08-17T00:12:06;18.40;99.90
11894;DHT22;6006;49.696;8.662;2023-08-17T00:14:34;18.40;99.90
11894;DHT22;6006;49.696;8.662;2023-08-17T00:17:01;18.40;99.90
11894;DHT22;6006;49.696;8.662;2023-08-17T00:19:28;18.40;99.90
11894;DHT22;6006;49.696;8.662;2023-08-17T00:21:55;18.40;99.90
11894;DHT22;6006;49.696;8.662;2023-08-17T00:24:22;18.40;99.90
11894;DHT22;6006;49.696;8.662;2023-08-17T00:26:49;18.40;99.90
11894;DHT22;6006;49.696;8.662;2023-08-17T00:29:16;18.40;99.90
11894;DHT22;6006;49.696;8.662;2023-08-17T00:31:45;18.40;99.90
11894;DHT22;6006;49.696;8.662;2023-08-17T00:34:12;18.40;99.90
11894;DHT22;6006;49.696;8.662;2023-08-17T00:36:38;18.40;99.90
11894;DHT22;6006;49.696;8.662;2023-08-17T00:39:06;18.40;99.90
11894;DHT22;6006;49.696;8.662;2023-08-17T00:41:33;18.40;99.90
11894;DHT22;6006;49.696;8.662;2023-08-17T00:44:00;18.40;99.90
11894;DHT22;6006;49.696;8.662;2023-08-17T00:46:30;18.40;99.90
11894;DHT22;6006;49.696;8.662;2023-08-17T00:48:58;18.40;99.90
11894;DHT22;6006;49.696;8.662;2023-08-17T00:51:26;18.40;99.90
11894;DHT22;6006;49.696;8.662;2023-08-17T00:53:57;18.40;99.90
11894;DHT22;6006;49.696;8.662;2023-08-17T00:56:25;18.30;99.90
11894;DHT22;6006;49.696;8.662;2023-08-17T00:58:52;18.30;99.90
11894;DHT22;6006;49.696;8.662;2023-08-17T01:01:20;18.30;99.90
11894;DHT22;6006;49.696;8.662;2023-08-17T01:03:47;18.30;99.90
11894;DHT22;6006;49.696;8.662;2023-08-17T01:06:15;18.30;99.90
11894;DHT22;6006;49.696;8.662;2023-08-17T01:08:43;18.30;99.90
11894;DHT22;6006;49.696;8.662;2023-08-17T01:11:17;18.30;99.90
11894;DHT22;6006;49.696;8.662;2023-08-17T01:13:50;18.30;99.90
11894;DHT22;6006;49.696;8.662;2023-08-17T01:16:24;18.30;99.90
11894;DHT22;6006;49.696;8.662;2023-08-17T01:18:51;18.30;99.90
11894;DHT22;6006;49.696;8.662;2023-08-17T01:21:21;18.30;99.90
11894;DHT22;6006;49.696;8.662;2023-08-17T01:23:52;18.30;99.90
11894;DHT22;6006;49.696;8.662;2023-08-17T01:26:19;18.20;99.90
11894;DHT22;6006;49.696;8.662;2023-08-17T01:28:46;18.10;99.90
11894;DHT22;6006;49.696;8.662;2023-08-17T01:31:17;18.00;99.90
11894;DHT22;6006;49.696;8.662;2023-08-17T01:33:49;18.00;99.90
11894;DHT22;6006;49.696;8.662;2023-08-17T01:36:20;17.90;99.90
11894;DHT22;6006;49.696;8.662;2023-08-17T01:38:53;17.80;99.90
11894;DHT22;6006;49.696;8.662;2023-08-17T01:41:23;17.80;99.90
11894;DHT22;6006;49.696;8.662;2023-08-17T01:43:50;17.70;99.90
11894;DHT22;6006;49.696;8.662;2023-08-17T01:46:18;17.70;99.90
11894;DHT22;6006;49.696;8.662;2023-08-17T01:48:45;17.70;99.90
11894;DHT22;6006;49.696;8.662;2023-08-17T01:51:17;17.70;99.90
11894;DHT22;6006;49.696;8.662;2023-08-17T01:53:45;17.70;99.90
11894;DHT22;6006;49.696;8.662;2023-08-17T01:56:14;17.60;99.90
11894;DHT22;6006;49.696;8.662;2023-08-17T01:58:41;17.50;99.90
11894;DHT22;6006;49.696;8.662;2023-08-17T02:01:08;17.50;99.90
11894;DHT22;6006;49.696;8.662;2023-08-17T02:03:34;17.40;99.90
11894;DHT22;6006;49.696;8.662;2023-08-17T02:06:02;17.40;99.90
11894;DHT22;6006;49.696;8.662;2023-08-17T02:08:29;17.30;99.90
11894;DHT22;6006;49.696;8.662;2023-08-17T02:10:56;17.20;99.90
11894;DHT22;6006;49.696;8.662;2023-08-17T02:13:24;17.20;99.90
11894;DHT22;6006;49.696;8.662;2023-08-17T02:15:53;17.20;99.90
11894;DHT22;6006;49.696;8.662;2023-08-17T02:18:20;17.10;99.90
11894;DHT22;6006;49.696;8.662;2023-08-17T02:20:46;17.10;99.90
11894;DHT22;6006;49.696;8.662;2023-08-17T02:23:13;17.00;99.90
11894;DHT22;6006;49.696;8.662;2023-08-17T02:25:41;17.00;99.90
11894;DHT22;6006;49.696;8.662;2023-08-17T02:28:08;17.00;99.90
11894;DHT22;6006;49.696;8.662;2023-08-17T02:30:36;16.90;99.90
11894;DHT22;6006;49.696;8.662;2023-08-17T02:33:03;16.90;99.90
11894;DHT22;6006;49.696;8.662;2023-08-17T02:35:30;16.90;99.90
11894;DHT22;6006;49.696;8.662;2023-08-17T02:37:57;16.80;99.90
11894;DHT22;6006;49.696;8.662;2023-08-17T02:40:24;16.80;99.90
11894;DHT22;6006;49.696;8.662;2023-08-17T02:42:51;16.80;99.90
11894;DHT22;6006;49.696;8.662;2023-08-17T02:45:18;16.80;99.90
11894;DHT22;6006;49.696;8.662;2023-08-17T02:47:46;16.80;99.90
11894;DHT22;6006;49.696;8.662;2023-08-17T02:50:13;16.70;99.90
11894;DHT22;6006;49.696;8.662;2023-08-17T02:52:40;16.60;99.90
11894;DHT22;6006;49.696;8.662;2023-08-17T02:55:07;16.60;99.90
11894;DHT22;6006;49.696;8.662;2023-08-17T02:57:34;16.50;99.90
11894;DHT22;6006;49.696;8.662;2023-08-17T03:00:05;16.50;99.90
11894;DHT22;6006;49.696;8.662;2023-08-17T03:02:32;16.50;99.90
11894;DHT22;6006;49.696;8.662;2023-08-17T03:05:00;16.40;99.90
11894;DHT22;6006;49.696;8.662;2023-08-17T03:07:28;16.40;99.90
11894;DHT22;6006;49.696;8.662;2023-08-17T03:09:55;16.40;99.90
11894;DHT22;6006;49.696;8.662;2023-08-17T03:12:22;16.40;99.90
11894;DHT22;6006;49.696;8.662;2023-08-17T03:14:49;16.30;99.90
11894;DHT22;6006;49.696;8.662;2023-08-17T03:17:16;16.30;99.90
11894;DHT22;6006;49.696;8.662;2023-08-17T03:19:43;16.30;99.90
11894;DHT22;6006;49.696;8.662;2023-08-17T03:22:11;16.30;99.90
11894;DHT22;6006;49.696;8.662;2023-08-17T03:24:38;16.20;99.90
11894;DHT22;6006;49.696;8.662;2023-08-17T03:27:05;16.20;99.90
11894;DHT22;6006;49.696;8.662;2023-08-17T03:29:32;16.20;99.90
11894;DHT22;6006;49.696;8.662;2023-08-17T03:31:59;16.20;99.90
11894;DHT22;6006;49.696;8.662;2023-08-17T03:34:26;16.20;99.90
11894;DHT22;6006;49.696;8.662;2023-08-17T03:36:53;16.10;99.90
11894;DHT22;6006;49.696;8.662;2023-08-17T03:39:21;16.10;99.90
11894;DHT22;6006;49.696;8.662;2023-08-17T03:41:48;16.10;99.90
11894;DHT22;6006;49.696;8.662;2023-08-17T03:44:15;16.10;99.90
11894;DHT22;6006;49.696;8.662;2023-08-17T03:46:42;16.10;99.90
11894;DHT22;6006;49.696;8.662;2023-08-17T03:49:09;16.10;99.90
11894;DHT22;6006;49.696;8.662;2023-08-17T03:51:36;16.10;99.90
11894;DHT22;6006;49.696;8.662;2023-08-17T03:54:03;16.10;99.90
11894;DHT22;6006;49.696;8.662;2023-08-17T03:56:31;16.10;99.90
11894;DHT22;6006;49.696;8.662;2023-08-17T03:58:58;16.10;99.90
11894;DHT22;6006;49.696;8.662;2023-08-17T04:01:25;16.10;99.90
11894;DHT22;6006;49.696;8.662;2023-08-17T04:03:53;16.10;99.90
11894;DHT22;6006;49.696;8.662;2023-08-17T04:06:20;16.10;99.90
11894;DHT22;6006;49.696;8.662;2023-08-17T04:08:47;16.00;99.90
11894;DHT22;6006;49.696;8.662;2023-08-17T04:11:14;16.00;99.90
11894;DHT22;6006;49.696;8.662;2023-08-17T04:13:42;16.00;99.90
11894;DHT22;6006;49.696;8.662;2023-08-17T04:16:09;16.00;99.90
11894;DHT22;6006;49.696;8.662;2023-08-17T04:18:36;15.90;99.90
11894;DHT22;6006;49.696;8.662;2023-08-17T04:21:04;15.90;99.90
11894;DHT22;6006;49.696;8.662;2023-08-17T04:23:31;15.90;99.90
11894;DHT22;6006;49.696;8.662;2023-08-17T04:25:58;15.90;99.90
11894;DHT22;6006;49.696;8.662;2023-08-17T04:28:25;15.90;99.90
11894;DHT22;6006;49.696;8.662;2023-08-17T04:30:54;15.90;99.90
11894;DHT22;6006;49.696;8.662;2023-08-17T04:33:21;15.80;99.90
11894;DHT22;6006;49.696;8.662;2023-08-17T04:35:48;15.80;99.90
11894;DHT22;6006;49.696;8.662;2023-08-17T04:38:14;15.80;99.90
11894;DHT22;6006;49.696;8.662;2023-08-17T04:40:41;15.80;99.90
11894;DHT22;6006;49.696;8.662;2023-08-17T04:43:10;15.90;99.90
11894;DHT22;6006;49.696;8.662;2023-08-17T04:45:37;15.90;99.90
11894;DHT22;6006;49.696;8.662;2023-08-17T04:48:06;15.90;99.90
11894;DHT22;6006;49.696;8.662;2023-08-17T04:50:33;16.00;99.90
11894;DHT22;6006;49.696;8.662;2023-08-17T04:53:00;16.00;99.90
11894;DHT22;6006;49.696;8.662;2023-08-17T04:55:27;16.00;99.90
11894;DHT22;6006;49.696;8.662;2023-08-17T04:57:54;16.10;99.90
11894;DHT22;6006;49.696;8.662;2023-08-17T05:00:21;16.10;99.90
11894;DHT22;6006;49.696;8.662;2023-08-17T05:02:53;16.10;99.90
11894;DHT22;6006;49.696;8.662;2023-08-17T05:05:22;16.10;99.90
11894;DHT22;6006;49.696;8.662;2023-08-17T05:07:49;16.00;99.90
11894;DHT22;6006;49.696;8.662;2023-08-17T05:10:16;16.10;99.90
11894;DHT22;6006;49.696;8.662;2023-08-17T05:12:43;16.00;99.90
11894;DHT22;6006;49.696;8.662;2023-08-17T05:15:10;16.10;99.90
11894;DHT22;6006;49.696;8.662;2023-08-17T05:17:37;16.10;99.90
11894;DHT22;6006;49.696;8.662;2023-08-17T05:20:05;16.10;99.90
11894;DHT22;6006;49.696;8.662;2023-08-17T05:22:35;16.20;99.90
11894;DHT22;6006;49.696;8.662;2023-08-17T05:25:02;16.30;99.90
11894;DHT22;6006;49.696;8.662;2023-08-17T05:27:29;16.30;99.90
11894;DHT22;6006;49.696;8.662;2023-08-17T05:29:56;16.60;99.90
11894;DHT22;6006;49.696;8.662;2023-08-17T05:32:23;16.70;99.90
11894;DHT22;6006;49.696;8.662;2023-08-17T05:34:50;16.90;99.90
11894;DHT22;6006;49.696;8.662;2023-08-17T05:37:17;17.00;99.90
11894;DHT22;6006;49.696;8.662;2023-08-17T05:39:45;17.10;99.90
11894;DHT22;6006;49.696;8.662;2023-08-17T05:42:12;17.30;99.90
11894;DHT22;6006;49.696;8.662;2023-08-17T05:44:39;17.40;99.90
11894;DHT22;6006;49.696;8.662;2023-08-17T05:47:06;17.60;99.90
11894;DHT22;6006;49.696;8.662;2023-08-17T05:49:33;17.70;99.90
11894;DHT22;6006;49.696;8.662;2023-08-17T05:52:00;17.70;99.90
11894;DHT22;6006;49.696;8.662;2023-08-17T05:54:27;17.80;99.90
11894;DHT22;6006;49.696;8.662;2023-08-17T05:56:55;17.90;99.90
11894;DHT22;6006;49.696;8.662;2023-08-17T05:59:22;18.00;99.90
11894;DHT22;6006;49.696;8.662;2023-08-17T06:01:49;18.10;99.90
11894;DHT22;6006;49.696;8.662;2023-08-17T06:04:16;18.30;99.90
11894;DHT22;6006;49.696;8.662;2023-08-17T06:06:43;18.50;99.90
11894;DHT22;6006;49.696;8.662;2023-08-17T06:09:09;18.70;99.90
11894;DHT22;6006;49.696;8.662;2023-08-17T06:11:36;19.10;99.90
11894;DHT22;6006;49.696;8.662;2023-08-17T06:14:05;19.30;99.90
11894;DHT22;6006;49.696;8.662;2023-08-17T06:16:32;19.40;99.90
11894;DHT22;6006;49.696;8.662;2023-08-17T06:18:59;19.40;99.90
11894;DHT22;6006;49.696;8.662;2023-08-17T06:21:26;19.50;99.90
11894;DHT22;6006;49.696;8.662;2023-08-17T06:23:53;19.70;99.90
11894;DHT22;6006;49.696;8.662;2023-08-17T06:26:20;20.00;99.90
11894;DHT22;6006;49.696;8.662;2023-08-17T06:28:47;20.20;99.90
11894;DHT22;6006;49.696;8.662;2023-08-17T06:31:16;20.40;99.90
11894;DHT22;6006;49.696;8.662;2023-08-17T06:33:43;20.60;99.90
11894;DHT22;6006;49.696;8.662;2023-08-17T06:36:10;20.80;99.90
11894;DHT22;6006;49.696;8.662;2023-08-17T06:38:38;21.20;52.90
11894;DHT22;6006;49.696;8.662;2023-08-17T06:41:05;21.30;27.60
11894;DHT22;6006;49.696;8.662;2023-08-17T06:43:32;21.40;1.00
11894;DHT22;6006;49.696;8.662;2023-08-17T06:45:59;21.70;27.90
11894;DHT22;6006;49.696;8.662;2023-08-17T06:48:28;22.10;1.00
11894;DHT22;6006;49.696;8.662;2023-08-17T06:50:57;22.30;1.00
11894;DHT22;6006;49.696;8.662;2023-08-17T06:53:24;22.60;1.00
11894;DHT22;6006;49.696;8.662;2023-08-17T06:55:50;22.70;99.90
11894;DHT22;6006;49.696;8.662;2023-08-17T06:58:17;23.10;99.90
11894;DHT22;6006;49.696;8.662;2023-08-17T07:00:44;23.20;1.00
11894;DHT22;6006;49.696;8.662;2023-08-17T07:03:11;23.40;1.00
11894;DHT22;6006;49.696;8.662;2023-08-17T07:05:39;23.30;8.60
11894;DHT22;6006;49.696;8.662;2023-08-17T07:08:06;22.90;99.90
11894;DHT22;6006;49.696;8.662;2023-08-17T07:10:33;24.00;1.00
11894;DHT22;6006;49.696;8.662;2023-08-17T07:13:00;24.50;1.00
11894;DHT22;6006;49.696;8.662;2023-08-17T07:15:29;24.60;1.00
11894;DHT22;6006;49.696;8.662;2023-08-17T07:17:56;24.70;1.00
11894;DHT22;6006;49.696;8.662;2023-08-17T07:20:23;25.00;99.90
11894;DHT22;6006;49.696;8.662;2023-08-17T07:22:51;25.20;1.00
11894;DHT22;6006;49.696;8.662;2023-08-17T07:25:18;25.50;99.90
11894;DHT22;6006;49.696;8.662;2023-08-17T07:27:45;26.10;99.90
11894;DHT22;6006;49.696;8.662;2023-08-17T07:30:12;26.60;1.00
11894;DHT22;6006;49.696;8.662;2023-08-17T07:32:39;27.10;1.00
11894;DHT22;6006;49.696;8.662;2023-08-17T07:35:07;26.70;1.00
11894;DHT22;6006;49.696;8.662;2023-08-17T07:37:34;26.50;1.00
11894;DHT22;6006;49.696;8.662;2023-08-17T07:40:02;25.90;99.90
11894;DHT22;6006;49.696;8.662;2023-08-17T07:42:30;25.40;99.90
11894;DHT22;6006;49.696;8.662;2023-08-17T07:44:57;26.00;99.90
11894;DHT22;6006;49.696;8.662;2023-08-17T07:47:24;25.50;99.90
11894;DHT22;6006;49.696;8.662;2023-08-17T07:49:51;25.00;1.00
11894;DHT22;6006;49.696;8.662;2023-08-17T07:52:18;25.80;99.90
11894;DHT22;6006;49.696;8.662;2023-08-17T07:54:48;26.20;77.40
11894;DHT22;6006;49.696;8.662;2023-08-17T07:57:16;25.70;99.90
11894;DHT22;6006;49.696;8.662;2023-08-17T07:59:43;26.70;1.00
11894;DHT22;6006;49.696;8.662;2023-08-17T08:02:10;26.50;1.00
11894;DHT22;6006;49.696;8.662;2023-08-17T08:04:37;26.40;1.00
11894;DHT22;6006;49.696;8.662;2023-08-17T08:07:05;26.80;1.00
11894;DHT22;6006;49.696;8.662;2023-08-17T08:09:32;27.10;1.00
11894;DHT22;6006;49.696;8.662;2023-08-17T08:11:59;27.00;1.00
11894;DHT22;6006;49.696;8.662;2023-08-17T08:14:27;27.50;1.00
11894;DHT22;6006;49.696;8.662;2023-08-17T08:16:54;27.70;1.00
11894;DHT22;6006;49.696;8.662;2023-08-17T08:19:21;27.80;1.00
11894;DHT22;6006;49.696;8.662;2023-08-17T08:21:48;26.30;1.00
11894;DHT22;6006;49.696;8.662;2023-08-17T08:24:15;25.80;99.90
11894;DHT22;6006;49.696;8.662;2023-08-17T08:26:42;25.30;1.00
11894;DHT22;6006;49.696;8.662;2023-08-17T08:29:09;25.60;99.90
11894;DHT22;6006;49.696;8.662;2023-08-17T08:31:37;25.50;1.00
11894;DHT22;6006;49.696;8.662;2023-08-17T08:34:04;25.30;54.80
11894;DHT22;6006;49.696;8.662;2023-08-17T08:36:31;25.10;99.90
11894;DHT22;6006;49.696;8.662;2023-08-17T08:38:58;24.60;1.00
11894;DHT22;6006;49.696;8.662;2023-08-17T08:41:26;24.50;99.90
11894;DHT22;6006;49.696;8.662;2023-08-17T08:43:53;24.60;1.00
11894;DHT22;6006;49.696;8.662;2023-08-17T08:46:21;24.20;1.00
11894;DHT22;6006;49.696;8.662;2023-08-17T08:48:52;24.90;99.90
11894;DHT22;6006;49.696;8.662;2023-08-17T08:51:25;25.10;99.90
11894;DHT22;6006;49.696;8.662;2023-08-17T08:53:59;25.30;99.90
11894;DHT22;6006;49.696;8.662;2023-08-17T08:56:28;24.80;1.00
11894;DHT22;6006;49.696;8.662;2023-08-17T08:58:59;24.70;99.90
11894;DHT22;6006;49.696;8.662;2023-08-17T09:01:29;25.10;64.10
11894;DHT22;6006;49.696;8.662;2023-08-17T09:03:58;26.30;1.00
11894;DHT22;6006;49.696;8.662;2023-08-17T09:06:26;26.60;99.90
11894;DHT22;6006;49.696;8.662;2023-08-17T09:08:53;26.90;1.00
11894;DHT22;6006;49.696;8.662;2023-08-17T09:11:20;26.10;1.00
11894;DHT22;6006;49.696;8.662;2023-08-17T09:13:48;26.40;1.00
11894;DHT22;6006;49.696;8.662;2023-08-17T09:16:15;26.30;1.00
11894;DHT22;6006;49.696;8.662;2023-08-17T09:18:42;26.60;99.90
11894;DHT22;6006;49.696;8.662;2023-08-17T09:21:20;27.10;99.90
11894;DHT22;6006;49.696;8.662;2023-08-17T09:23:51;27.60;99.90
11894;DHT22;6006;49.696;8.662;2023-08-17T09:26:19;28.30;1.00
11894;DHT22;6006;49.696;8.662;2023-08-17T09:28:47;28.40;1.00
11894;DHT22;6006;49.696;8.662;2023-08-17T09:31:14;28.40;99.90
11894;DHT22;6006;49.696;8.662;2023-08-17T09:33:41;28.00;1.00
11894;DHT22;6006;49.696;8.662;2023-08-17T09:36:11;27.50;99.90
11894;DHT22;6006;49.696;8.662;2023-08-17T09:38:39;27.60;53.30
11894;DHT22;6006;49.696;8.662;2023-08-17T09:41:06;27.10;99.90
11894;DHT22;6006;49.696;8.662;2023-08-17T09:43:32;27.70;46.50
11894;DHT22;6006;49.696;8.662;2023-08-17T09:46:00;27.40;99.90
11894;DHT22;6006;49.696;8.662;2023-08-17T09:48:29;27.30;99.90
11894;DHT22;6006;49.696;8.662;2023-08-17T09:50:57;28.00;99.90
11894;DHT22;6006;49.696;8.662;2023-08-17T09:53:26;28.40;1.00
11894;DHT22;6006;49.696;8.662;2023-08-17T09:55:53;27.60;29.00
11894;DHT22;6006;49.696;8.662;2023-08-17T09:58:21;27.40;99.90
11894;DHT22;6006;49.696;8.662;2023-08-17T10:00:50;27.70;99.90
11894;DHT22;6006;49.696;8.662;2023-08-17T10:03:18;28.20;1.00
11894;DHT22;6006;49.696;8.662;2023-08-17T10:05:48;28.40;1.00
11894;DHT22;6006;49.696;8.662;2023-08-17T10:08:19;27.40;1.00
11894;DHT22;6006;49.696;8.662;2023-08-17T10:10:48;26.40;1.00
11894;DHT22;6006;49.696;8.662;2023-08-17T10:13:22;25.90;1.00
11894;DHT22;6006;49.696;8.662;2023-08-17T10:16:00;26.20;1.00
11894;DHT22;6006;49.696;8.662;2023-08-17T10:18:31;27.00;1.00
11894;DHT22;6006;49.696;8.662;2023-08-17T10:21:05;28.30;99.90
11894;DHT22;6006;49.696;8.662;2023-08-17T10:23:33;28.80;1.00
11894;DHT22;6006;49.696;8.662;2023-08-17T10:26:03;28.60;54.00
11894;DHT22;6006;49.696;8.662;2023-08-17T10:28:31;28.60;99.90
11894;DHT22;6006;49.696;8.662;2023-08-17T10:30:59;28.40;99.90
11894;DHT22;6006;49.696;8.662;2023-08-17T10:33:26;28.40;29.80
11894;DHT22;6006;49.696;8.662;2023-08-17T10:35:54;27.70;1.00
11894;DHT22;6006;49.696;8.662;2023-08-17T10:38:22;28.10;99.90
11894;DHT22;6006;49.696;8.662;2023-08-17T10:41:09;27.70;94.60
11894;DHT22;6006;49.696;8.662;2023-08-17T10:43:54;27.70;99.90
11894;DHT22;6006;49.696;8.662;2023-08-17T10:46:24;27.70;1.00
11894;DHT22;6006;49.696;8.662;2023-08-17T10:49:01;27.50;1.00
11894;DHT22;6006;49.696;8.662;2023-08-17T10:51:29;27.60;1.00
11894;DHT22;6006;49.696;8.662;2023-08-17T10:53:58;27.40;1.00
11894;DHT22;6006;49.696;8.662;2023-08-17T10:56:28;28.10;99.90
11894;DHT22;6006;49.696;8.662;2023-08-17T10:58:58;29.00;1.00
11894;DHT22;6006;49.696;8.662;2023-08-17T11:01:32;29.20;1.00
11894;DHT22;6006;49.696;8.662;2023-08-17T11:04:10;29.10;1.00
11894;DHT22;6006;49.696;8.662;2023-08-17T11:06:38;28.40;1.00
11894;DHT22;6006;49.696;8.662;2023-08-17T11:09:07;28.40;28.70
11894;DHT22;6006;49.696;8.662;2023-08-17T11:11:36;28.30;99.90
11894;DHT22;6006;49.696;8.662;2023-08-17T11:14:03;28.90;1.00
11894;DHT22;6006;49.696;8.662;2023-08-17T11:16:30;29.40;1.00
11894;DHT22;6006;49.696;8.662;2023-08-17T11:18:57;29.40;1.00
11894;DHT22;6006;49.696;8.662;2023-08-17T11:21:25;28.70;99.90
11894;DHT22;6006;49.696;8.662;2023-08-17T11:23:56;28.30;99.90
11894;DHT22;6006;49.696;8.662;2023-08-17T11:26:23;28.50;99.90
11894;DHT22;6006;49.696;8.662;2023-08-17T11:28:52;29.10;99.90
11894;DHT22;6006;49.696;8.662;2023-08-17T11:31:19;29.20;1.00
11894;DHT22;6006;49.696;8.662;2023-08-17T11:33:46;30.40;1.00
11894;DHT22;6006;49.696;8.662;2023-08-17T11:36:13;31.70;1.00
11894;DHT22;6006;49.696;8.662;2023-08-17T11:38:41;32.40;99.90
11894;DHT22;6006;49.696;8.662;2023-08-17T11:41:09;31.80;99.90
11894;DHT22;6006;49.696;8.662;2023-08-17T11:43:37;30.70;1.00
11894;DHT22;6006;49.696;8.662;2023-08-17T11:46:05;31.00;99.90
11894;DHT22;6006;49.696;8.662;2023-08-17T11:48:32;29.80;1.00
11894;DHT22;6006;49.696;8.662;2023-08-17T11:51:00;30.80;1.00
11894;DHT22;6006;49.696;8.662;2023-08-17T11:53:33;31.00;1.00
11894;DHT22;6006;49.696;8.662;2023-08-17T11:56:00;29.90;1.00
11894;DHT22;6006;49.696;8.662;2023-08-17T11:58:40;30.20;1.00
11894;DHT22;6006;49.696;8.662;2023-08-17T12:01:10;29.90;1.00
11894;DHT22;6006;49.696;8.662;2023-08-17T12:03:38;31.30;1.00
11894;DHT22;6006;49.696;8.662;2023-08-17T12:06:06;30.90;1.00
11894;DHT22;6006;49.696;8.662;2023-08-17T12:08:33;31.00;1.00
11894;DHT22;6006;49.696;8.662;2023-08-17T12:11:00;31.40;1.00
11894;DHT22;6006;49.696;8.662;2023-08-17T12:13:32;30.60;1.00
11894;DHT22;6006;49.696;8.662;2023-08-17T12:15:59;30.10;1.00
11894;DHT22;6006;49.696;8.662;2023-08-17T12:18:28;29.70;1.00
11894;DHT22;6006;49.696;8.662;2023-08-17T12:20:55;28.90;1.00
11894;DHT22;6006;49.696;8.662;2023-08-17T12:23:22;27.90;99.90
11894;DHT22;6006;49.696;8.662;2023-08-17T12:25:53;27.60;99.90
11894;DHT22;6006;49.696;8.662;2023-08-17T12:28:20;27.50;1.00
11894;DHT22;6006;49.696;8.662;2023-08-17T12:30:47;27.60;1.00
11894;DHT22;6006;49.696;8.662;2023-08-17T12:33:14;27.60;99.90
11894;DHT22;6006;49.696;8.662;2023-08-17T12:35:42;27.60;1.00
11894;DHT22;6006;49.696;8.662;2023-08-17T12:38:09;27.70;1.00
11894;DHT22;6006;49.696;8.662;2023-08-17T12:40:36;27.70;99.90
11894;DHT22;6006;49.696;8.662;2023-08-17T12:43:03;27.60;99.90
11894;DHT22;6006;49.696;8.662;2023-08-17T12:45:30;27.00;1.00
11894;DHT22;6006;49.696;8.662;2023-08-17T12:47:57;26.70;99.90
11894;DHT22;6006;49.696;8.662;2023-08-17T12:50:24;26.50;99.90
11894;DHT22;6006;49.696;8.662;2023-08-17T12:52:52;26.20;99.90
11894;DHT22;6006;49.696;8.662;2023-08-17T12:55:19;26.30;99.90
11894;DHT22;6006;49.696;8.662;2023-08-17T12:57:46;26.00;28.30
11894;DHT22;6006;49.696;8.662;2023-08-17T13:00:13;26.40;99.90
11894;DHT22;6006;49.696;8.662;2023-08-17T13:02:40;26.70;1.00
11894;DHT22;6006;49.696;8.662;2023-08-17T13:05:07;26.60;1.00
11894;DHT22;6006;49.696;8.662;2023-08-17T13:07:34;26.70;1.00
11894;DHT22;6006;49.696;8.662;2023-08-17T13:10:03;26.50;1.00
11894;DHT22;6006;49.696;8.662;2023-08-17T13:12:30;26.60;1.00
11894;DHT22;6006;49.696;8.662;2023-08-17T13:14:57;27.00;99.90
11894;DHT22;6006;49.696;8.662;2023-08-17T13:17:24;27.80;99.90
11894;DHT22;6006;49.696;8.662;2023-08-17T13:19:51;28.40;58.40
11894;DHT22;6006;49.696;8.662;2023-08-17T13:22:18;28.80;1.00
11894;DHT22;6006;49.696;8.662;2023-08-17T13:24:45;28.40;1.00
11894;DHT22;6006;49.696;8.662;2023-08-17T13:27:13;28.60;1.00
11894;DHT22;6006;49.696;8.662;2023-08-17T13:29:40;28.80;1.00
11894;DHT22;6006;49.696;8.662;2023-08-17T13:32:07;29.20;1.00
11894;DHT22;6006;49.696;8.662;2023-08-17T13:34:33;29.10;1.00
11894;DHT22;6006;49.696;8.662;2023-08-17T13:37:00;28.20;99.90
11894;DHT22;6006;49.696;8.662;2023-08-17T13:39:28;28.90;66.30
11894;DHT22;6006;49.696;8.662;2023-08-17T13:41:55;29.70;1.00
11894;DHT22;6006;49.696;8.662;2023-08-17T13:44:23;30.30;1.00
11894;DHT22;6006;49.696;8.662;2023-08-17T13:46:50;30.60;1.00
11894;DHT22;6006;49.696;8.662;2023-08-17T13:49:17;30.20;1.00
11894;DHT22;6006;49.696;8.662;2023-08-17T13:51:44;29.40;1.00
11894;DHT22;6006;49.696;8.662;2023-08-17T13:54:11;29.00;1.00
11894;DHT22;6006;49.696;8.662;2023-08-17T13:56:38;28.70;1.00
11894;DHT22;6006;49.696;8.662;2023-08-17T13:59:05;28.50;1.00
11894;DHT22;6006;49.696;8.662;2023-08-17T14:01:33;28.60;99.90
11894;DHT22;6006;49.696;8.662;2023-08-17T14:04:00;28.90;1.00
11894;DHT22;6006;49.696;8.662;2023-08-17T14:06:29;29.00;1.00
11894;DHT22;6006;49.696;8.662;2023-08-17T14:08:56;29.20;1.00
11894;DHT22;6006;49.696;8.662;2023-08-17T14:11:22;29.50;1.00
11894;DHT22;6006;49.696;8.662;2023-08-17T14:13:49;29.80;1.00
11894;DHT22;6006;49.696;8.662;2023-08-17T14:16:16;29.70;1.00
11894;DHT22;6006;49.696;8.662;2023-08-17T14:18:44;29.50;1.00
11894;DHT22;6006;49.696;8.662;2023-08-17T14:21:11;29.30;1.00
11894;DHT22;6006;49.696;8.662;2023-08-17T14:23:38;28.60;99.90
11894;DHT22;6006;49.696;8.662;2023-08-17T14:26:06;28.70;91.30
11894;DHT22;6006;49.696;8.662;2023-08-17T14:28:33;28.50;99.90
11894;DHT22;6006;49.696;8.662;2023-08-17T14:31:00;28.50;99.90
11894;DHT22;6006;49.696;8.662;2023-08-17T14:33:26;28.60;74.50
11894;DHT22;6006;49.696;8.662;2023-08-17T14:35:55;28.50;99.90
11894;DHT22;6006;49.696;8.662;2023-08-17T14:38:22;28.60;99.90
11894;DHT22;6006;49.696;8.662;2023-08-17T14:40:49;28.50;93.60
11894;DHT22;6006;49.696;8.662;2023-08-17T14:43:16;28.50;99.90
11894;DHT22;6006;49.696;8.662;2023-08-17T14:45:43;28.60;99.90
11894;DHT22;6006;49.696;8.662;2023-08-17T14:48:10;28.70;1.00
11894;DHT22;6006;49.696;8.662;2023-08-17T14:50:37;28.90;1.00
11894;DHT22;6006;49.696;8.662;2023-08-17T14:53:05;29.20;1.00
11894;DHT22;6006;49.696;8.662;2023-08-17T14:55:33;29.30;1.00
11894;DHT22;6006;49.696;8.662;2023-08-17T14:58:00;29.30;1.00
11894;DHT22;6006;49.696;8.662;2023-08-17T15:00:27;29.30;1.00
11894;DHT22;6006;49.696;8.662;2023-08-17T15:02:56;29.40;1.00
11894;DHT22;6006;49.696;8.662;2023-08-17T15:05:23;29.40;1.00
11894;DHT22;6006;49.696;8.662;2023-08-17T15:07:50;29.40;1.00
11894;DHT22;6006;49.696;8.662;2023-08-17T15:10:18;29.00;1.00
11894;DHT22;6006;49.696;8.662;2023-08-17T15:12:45;29.00;31.90
11894;DHT22;6006;49.696;8.662;2023-08-17T15:15:12;28.90;1.00
11894;DHT22;6006;49.696;8.662;2023-08-17T15:17:39;28.60;1.00
11894;DHT22;6006;49.696;8.662;2023-08-17T15:20:07;29.00;27.50
11894;DHT22;6006;49.696;8.662;2023-08-17T15:22:34;28.90;1.00
11894;DHT22;6006;49.696;8.662;2023-08-17T15:25:00;29.00;1.00
11894;DHT22;6006;49.696;8.662;2023-08-17T15:27:29;28.70;99.90
11894;DHT22;6006;49.696;8.662;2023-08-17T15:29:56;28.80;1.00
11894;DHT22;6006;49.696;8.662;2023-08-17T15:32:23;28.70;1.00
11894;DHT22;6006;49.696;8.662;2023-08-17T15:34:50;28.60;99.90
11894;DHT22;6006;49.696;8.662;2023-08-17T15:37:17;28.60;1.00
11894;DHT22;6006;49.696;8.662;2023-08-17T15:39:44;28.40;1.00
11894;DHT22;6006;49.696;8.662;2023-08-17T15:42:11;28.30;99.90
11894;DHT22;6006;49.696;8.662;2023-08-17T15:44:39;28.30;99.90
11894;DHT22;6006;49.696;8.662;2023-08-17T15:47:06;28.50;99.90
11894;DHT22;6006;49.696;8.662;2023-08-17T15:49:33;28.50;99.90
11894;DHT22;6006;49.696;8.662;2023-08-17T15:52:00;29.00;29.60
11894;DHT22;6006;49.696;8.662;2023-08-17T15:54:27;28.90;1.00
11894;DHT22;6006;49.696;8.662;2023-08-17T15:56:54;28.70;1.00